createdAt,value
2022-08-24T00:00:26.136Z,19.90
2022-08-24T00:02:52.853Z,19.88
2022-08-24T00:05:21.454Z,19.80
2022-08-24T00:07:50.079Z,19.76
2022-08-24T00:10:18.379Z,19.90
2022-08-24T00:12:48.272Z,19.89
2022-08-24T00:15:16.383Z,19.78
2022-08-24T00:17:43.089Z,19.76
2022-08-24T00:20:11.456Z,19.83
2022-08-24T00:22:39.043Z,19.76
2022-08-24T00:25:06.445Z,19.72
2022-08-24T00:27:33.214Z,19.65
2022-08-24T00:30:00.028Z,19.73
2022-08-24T00:32:26.687Z,19.77
2022-08-24T00:34:58.245Z,19.70
2022-08-24T00:37:28.763Z,19.72
2022-08-24T00:39:57.179Z,19.68
2022-08-24T00:42:24.517Z,19.57
2022-08-24T00:44:52.162Z,19.45
2022-08-24T00:47:24.101Z,19.59
2022-08-24T00:49:55.967Z,19.56
2022-08-24T00:52:38.728Z,19.53
2022-08-24T00:55:10.143Z,19.49
2022-08-24T00:57:43.322Z,19.24
2022-08-24T01:00:24.696Z,19.38
2022-08-24T01:02:55.922Z,19.38
2022-08-24T01:05:22.807Z,19.27
2022-08-24T01:07:50.776Z,19.40
2022-08-24T01:10:21.221Z,19.29
2022-08-24T01:13:01.064Z,19.39
2022-08-24T01:15:29.560Z,19.23
2022-08-24T01:18:15.582Z,19.22
2022-08-24T01:20:46.139Z,19.36
2022-08-24T01:23:28.121Z,19.30
2022-08-24T01:26:03.118Z,19.23
2022-08-24T01:28:30.397Z,19.18
2022-08-24T01:30:58.792Z,19.08
2022-08-24T01:33:32.953Z,19.15
2022-08-24T01:36:11.623Z,19.13
2022-08-24T01:38:38.231Z,18.95
2022-08-24T01:41:04.975Z,18.72
2022-08-24T01:43:31.659Z,18.88
2022-08-24T01:46:03.799Z,18.77
2022-08-24T01:48:31.044Z,18.85
2022-08-24T01:50:57.794Z,18.84
2022-08-24T01:53:25.012Z,18.82
2022-08-24T01:55:51.925Z,18.68
2022-08-24T01:58:18.660Z,18.82
2022-08-24T02:00:45.477Z,18.69
2022-08-24T02:03:12.200Z,18.83
2022-08-24T02:05:38.999Z,18.78
2022-08-24T02:08:06.389Z,18.74
2022-08-24T02:10:33.110Z,18.69
2022-08-24T02:12:59.966Z,18.44
2022-08-24T02:15:32.158Z,18.62
2022-08-24T02:18:00.082Z,18.70
2022-08-24T02:20:27.203Z,18.65
2022-08-24T02:22:54.501Z,18.60
2022-08-24T02:25:24.454Z,18.46
2022-08-24T02:27:51.140Z,18.60
2022-08-24T02:30:18.153Z,18.51
2022-08-24T02:32:44.828Z,18.47
2022-08-24T02:35:11.856Z,18.32
2022-08-24T02:37:43.798Z,18.23
2022-08-24T02:40:12.705Z,18.37
2022-08-24T02:42:39.624Z,18.38
2022-08-24T02:45:06.892Z,18.35
2022-08-24T02:47:38.693Z,18.33
2022-08-24T02:50:08.588Z,18.29
2022-08-24T02:52:37.647Z,18.25
2022-08-24T02:55:06.261Z,18.30
2022-08-24T02:57:32.882Z,18.25
2022-08-24T02:59:59.812Z,18.17
2022-08-24T03:02:27.147Z,18.30
2022-08-24T03:04:56.679Z,18.27
2022-08-24T03:07:25.485Z,18.31
2022-08-24T03:09:52.077Z,18.27
2022-08-24T03:12:18.657Z,18.20
2022-08-24T03:14:45.444Z,18.04
2022-08-24T03:17:12.153Z,18.17
2022-08-24T03:19:38.838Z,18.19
2022-08-24T03:22:05.681Z,18.12
2022-08-24T03:24:32.491Z,18.07
2022-08-24T03:26:59.556Z,18.00
2022-08-24T03:29:26.400Z,17.99
2022-08-24T03:31:52.988Z,18.07
2022-08-24T03:34:21.057Z,17.93
2022-08-24T03:36:47.625Z,18.02
2022-08-24T03:39:15.621Z,17.94
2022-08-24T03:41:42.850Z,17.89
2022-08-24T03:44:09.702Z,17.97
2022-08-24T03:46:37.721Z,18.33
2022-08-24T03:49:08.806Z,18.29
2022-08-24T03:51:37.606Z,18.13
2022-08-24T03:54:06.060Z,18.25
2022-08-24T03:56:32.834Z,18.31
2022-08-24T03:58:59.591Z,18.24
2022-08-24T04:01:26.962Z,18.48
2022-08-24T04:03:54.210Z,18.41
2022-08-24T04:06:21.979Z,18.36
2022-08-24T04:08:48.935Z,18.26
2022-08-24T04:11:23.001Z,18.20
2022-08-24T04:13:53.338Z,18.20
2022-08-24T04:16:21.427Z,18.14
2022-08-24T04:18:49.167Z,18.44
2022-08-24T04:21:16.859Z,18.35
2022-08-24T04:23:46.885Z,18.14
2022-08-24T04:26:16.067Z,18.21
2022-08-24T04:28:42.833Z,18.08
2022-08-24T04:31:09.545Z,17.94
2022-08-24T04:33:36.409Z,18.17
2022-08-24T04:36:08.029Z,18.13
2022-08-24T04:38:35.483Z,18.08
2022-08-24T04:41:05.793Z,18.05
2022-08-24T04:43:34.811Z,17.98
2022-08-24T04:46:05.379Z,17.81
2022-08-24T04:48:32.793Z,17.91
2022-08-24T04:51:05.827Z,17.91
2022-08-24T04:53:33.722Z,17.70
2022-08-24T04:56:05.632Z,17.67
2022-08-24T04:58:32.738Z,17.44
2022-08-24T05:01:02.733Z,17.34
2022-08-24T05:03:30.001Z,17.40
2022-08-24T05:05:56.798Z,17.39
2022-08-24T05:08:29.720Z,17.31
2022-08-24T05:10:56.659Z,17.39
2022-08-24T05:13:23.836Z,17.61
2022-08-24T05:15:50.856Z,17.65
2022-08-24T05:18:35.501Z,17.48
2022-08-24T05:21:02.643Z,17.58
2022-08-24T05:23:31.204Z,17.41
2022-08-24T05:26:14.169Z,17.39
2022-08-24T05:28:41.317Z,17.46
2022-08-24T05:31:13.866Z,17.53
2022-08-24T05:33:41.516Z,17.54
2022-08-24T05:36:20.713Z,17.69
2022-08-24T05:38:49.213Z,17.82
2022-08-24T05:41:17.049Z,17.85
2022-08-24T05:43:44.394Z,17.82
2022-08-24T05:46:11.180Z,17.76
2022-08-24T05:48:38.235Z,17.77
2022-08-24T05:51:06.358Z,17.94
2022-08-24T05:53:33.571Z,18.35
2022-08-24T05:56:05.994Z,18.47
2022-08-24T05:58:32.620Z,18.23
2022-08-24T06:01:05.711Z,18.16
2022-08-24T06:03:32.236Z,17.95
2022-08-24T06:06:01.193Z,17.93
2022-08-24T06:08:27.835Z,17.93
2022-08-24T06:10:54.365Z,17.78
2022-08-24T06:13:21.355Z,17.79
2022-08-24T06:16:11.032Z,17.47
2022-08-24T06:18:35.563Z,17.70
2022-08-24T06:21:09.079Z,17.61
2022-08-24T06:23:36.445Z,17.70
2022-08-24T06:26:23.477Z,17.80
2022-08-24T06:28:50.208Z,17.66
2022-08-24T06:31:16.962Z,17.80
2022-08-24T06:33:43.643Z,17.92
2022-08-24T06:36:10.499Z,17.86
2022-08-24T06:38:37.663Z,18.00
2022-08-24T06:41:04.877Z,18.05
2022-08-24T06:43:33.941Z,18.01
2022-08-24T06:46:04.411Z,18.30
2022-08-24T06:48:32.444Z,18.40
2022-08-24T06:51:00.297Z,18.47
2022-08-24T06:53:27.678Z,18.59
2022-08-24T06:56:00.951Z,18.77
2022-08-24T06:58:32.469Z,19.01
2022-08-24T07:01:10.039Z,19.12
2022-08-24T07:03:36.663Z,19.21
2022-08-24T07:06:04.716Z,19.38
2022-08-24T07:08:31.541Z,19.37
2022-08-24T07:10:58.579Z,19.57
2022-08-24T07:13:25.577Z,19.95
2022-08-24T07:15:53.133Z,20.19
2022-08-24T07:18:20.969Z,20.36
2022-08-24T07:20:53.187Z,20.63
2022-08-24T07:23:27.335Z,20.83
2022-08-24T07:26:22.867Z,21.14
2022-08-24T07:28:56.188Z,21.61
2022-08-24T07:31:22.846Z,21.91
2022-08-24T07:33:49.602Z,22.20
2022-08-24T07:36:22.625Z,22.56
2022-08-24T07:38:54.039Z,22.75
2022-08-24T07:41:56.219Z,22.94
2022-08-24T07:44:16.799Z,23.10
2022-08-24T07:46:44.052Z,23.27
2022-08-24T07:49:29.442Z,23.50
2022-08-24T07:51:59.466Z,23.99
2022-08-24T07:54:31.592Z,24.36
2022-08-24T07:57:06.462Z,24.60
2022-08-24T07:59:34.659Z,24.76
2022-08-24T08:02:01.533Z,24.84
2022-08-24T08:04:28.158Z,25.10
2022-08-24T08:09:21.535Z,25.44
2022-08-24T08:11:48.981Z,25.48
2022-08-24T08:14:15.622Z,25.22
2022-08-24T08:16:42.429Z,25.21
2022-08-24T08:19:10.506Z,25.48
2022-08-24T08:22:10.021Z,26.06
2022-08-24T08:24:43.790Z,26.26
2022-08-24T08:27:11.867Z,26.24
2022-08-24T08:29:40.578Z,26.43
2022-08-24T08:32:17.002Z,26.68
2022-08-24T08:34:44.395Z,27.07
2022-08-24T08:37:11.583Z,27.44
2022-08-24T08:39:41.756Z,27.84
2022-08-24T08:42:32.473Z,28.09
2022-08-24T08:45:26.616Z,28.46
2022-08-24T08:50:35.529Z,29.31
2022-08-24T08:53:27.698Z,29.72
2022-08-24T08:56:23.747Z,30.37
2022-08-24T08:59:25.080Z,30.68
2022-08-24T09:02:14.488Z,31.17
2022-08-24T09:04:43.621Z,31.56
2022-08-24T09:07:49.401Z,31.71
2022-08-24T09:10:27.612Z,31.67
2022-08-24T09:13:11.909Z,31.86
2022-08-24T09:16:10.706Z,32.36
2022-08-24T09:18:44.329Z,32.59
2022-08-24T09:21:20.037Z,32.76
2022-08-24T09:24:04.425Z,33.05
2022-08-24T09:27:07.699Z,33.24
2022-08-24T09:29:34.730Z,32.96
2022-08-24T09:35:53.919Z,32.54
2022-08-24T09:38:44.830Z,32.35
2022-08-24T09:41:26.576Z,32.83
2022-08-24T09:44:25.587Z,32.55
2022-08-24T09:47:04.118Z,33.11
2022-08-24T09:50:01.051Z,33.76
2022-08-24T09:52:45.949Z,33.77
2022-08-24T09:55:46.577Z,34.18
2022-08-24T09:58:20.963Z,34.77
2022-08-24T10:01:02.235Z,34.98
2022-08-24T10:03:41.348Z,35.06
2022-08-24T10:06:45.250Z,35.00
2022-08-24T10:09:41.791Z,35.09
2022-08-24T10:12:47.247Z,34.97
2022-08-24T10:15:22.616Z,34.97
2022-08-24T10:17:58.301Z,35.58
2022-08-24T10:20:39.365Z,35.77
2022-08-24T10:23:20.934Z,36.15
2022-08-24T10:26:04.134Z,36.28
2022-08-24T10:28:52.320Z,36.47
2022-08-24T10:31:27.029Z,36.53
2022-08-24T10:34:03.850Z,36.86
2022-08-24T10:36:33.551Z,37.04
2022-08-24T10:39:45.493Z,36.84
2022-08-24T10:42:49.579Z,35.62
2022-08-24T10:45:35.207Z,34.63
2022-08-24T10:48:26.704Z,34.89
2022-08-24T10:51:15.996Z,35.41
2022-08-24T10:53:49.620Z,35.94
2022-08-24T10:56:36.139Z,35.28
2022-08-24T10:59:16.608Z,35.39
2022-08-24T11:02:19.436Z,36.18
2022-08-24T11:04:56.016Z,36.96
2022-08-24T11:07:22.655Z,37.14
2022-08-24T11:09:53.367Z,37.62
2022-08-24T11:12:23.816Z,38.11
2022-08-24T11:14:50.649Z,38.34
2022-08-24T11:17:21.379Z,37.78
2022-08-24T11:19:49.879Z,37.38
2022-08-24T11:22:28.974Z,37.76
2022-08-24T11:25:00.130Z,38.03
2022-08-24T11:27:52.077Z,38.23
2022-08-24T11:30:18.590Z,38.17
2022-08-24T11:32:58.679Z,37.84
2022-08-24T11:35:33.475Z,38.08
2022-08-24T11:38:16.157Z,38.62
2022-08-24T11:40:57.617Z,38.98
2022-08-24T11:43:46.032Z,39.34
2022-08-24T11:46:53.606Z,39.25
2022-08-24T11:49:42.637Z,39.17
2022-08-24T11:52:20.124Z,39.32
2022-08-24T11:54:53.664Z,39.40
2022-08-24T11:57:22.906Z,39.64
2022-08-24T12:00:02.336Z,39.82
2022-08-24T12:02:59.293Z,39.81
2022-08-24T12:06:10.434Z,39.31
2022-08-24T12:08:51.030Z,39.41
2022-08-24T12:11:42.337Z,39.41
2022-08-24T12:14:33.436Z,39.11
2022-08-24T12:17:03.088Z,39.53
2022-08-24T12:19:40.624Z,39.85
2022-08-24T12:22:10.071Z,39.91
2022-08-24T12:25:00.929Z,39.25
2022-08-24T12:27:34.452Z,39.22
2022-08-24T12:30:08.042Z,39.38
2022-08-24T12:33:00.756Z,39.63
2022-08-24T12:35:36.804Z,38.89
2022-08-24T12:38:33.727Z,38.80
2022-08-24T12:41:17.854Z,39.11
2022-08-24T12:43:58.943Z,39.17
2022-08-24T12:46:28.849Z,39.02
2022-08-24T12:49:18.189Z,38.71
2022-08-24T12:51:54.109Z,39.25
2022-08-24T12:54:28.712Z,39.74
2022-08-24T12:57:25.395Z,39.91
2022-08-24T12:59:57.698Z,40.01
2022-08-24T13:02:26.357Z,39.70
2022-08-24T13:04:53.720Z,39.59
2022-08-24T13:07:23.371Z,39.59
2022-08-24T13:10:15.850Z,38.60
2022-08-24T13:12:43.448Z,38.70
2022-08-24T13:15:31.205Z,39.19
2022-08-24T13:18:20.914Z,39.10
2022-08-24T13:20:50.251Z,39.40
2022-08-24T13:23:18.886Z,39.84
2022-08-24T13:25:48.288Z,39.75
2022-08-24T13:28:20.933Z,39.69
2022-08-24T13:30:56.418Z,38.62
2022-08-24T13:33:47.840Z,38.75
2022-08-24T13:36:29.744Z,39.42
2022-08-24T13:39:15.612Z,39.50
2022-08-24T13:41:49.319Z,39.17
2022-08-24T13:44:57.818Z,39.45
2022-08-24T13:47:33.506Z,39.01
2022-08-24T13:50:34.327Z,38.51
2022-08-24T13:53:38.395Z,38.60
2022-08-24T13:56:26.894Z,39.18
2022-08-24T13:59:11.508Z,39.06
2022-08-24T14:02:21.251Z,38.82
2022-08-24T14:05:19.372Z,38.15
2022-08-24T14:07:56.952Z,38.33
2022-08-24T14:10:53.744Z,38.45
2022-08-24T14:13:32.779Z,38.29
2022-08-24T14:16:29.995Z,38.78
2022-08-24T14:19:11.835Z,39.24
2022-08-24T14:21:53.064Z,38.86
2022-08-24T14:24:30.599Z,39.08
2022-08-24T14:27:05.413Z,39.40
2022-08-24T14:29:35.471Z,39.68
2022-08-24T14:32:12.027Z,39.69
2022-08-24T14:34:41.952Z,39.87
2022-08-24T14:37:14.683Z,39.36
2022-08-24T14:40:29.234Z,39.39
2022-08-24T14:43:34.322Z,38.66
2022-08-24T14:46:24.226Z,38.40
2022-08-24T14:49:18.239Z,38.41
2022-08-24T14:52:03.615Z,38.62
2022-08-24T14:54:39.016Z,38.81
2022-08-24T14:57:22.431Z,39.02
2022-08-24T15:00:04.903Z,39.24
2022-08-24T15:02:43.573Z,39.34
2022-08-24T15:05:13.171Z,39.54
2022-08-24T15:07:40.089Z,39.38
2022-08-24T15:10:14.947Z,39.27
2022-08-24T15:12:51.745Z,39.04
2022-08-24T15:15:23.881Z,38.34
2022-08-24T15:18:18.244Z,37.56
2022-08-24T15:21:18.647Z,37.08
2022-08-24T15:24:09.982Z,37.14
2022-08-24T15:26:56.791Z,37.55
2022-08-24T15:29:27.128Z,37.64
2022-08-24T15:31:59.437Z,37.79
2022-08-24T15:34:48.935Z,37.37
2022-08-24T15:37:25.313Z,36.51
2022-08-24T15:39:52.064Z,36.35
2022-08-24T15:42:18.793Z,36.36
2022-08-24T15:44:49.481Z,36.04
2022-08-24T15:47:28.347Z,35.37
2022-08-24T15:50:02.030Z,35.55
2022-08-24T15:52:40.788Z,35.69
2022-08-24T15:55:19.652Z,35.76
2022-08-24T15:57:46.312Z,35.69
2022-08-24T16:00:44.584Z,35.78
2022-08-24T16:03:45.611Z,35.74
2022-08-24T16:06:24.475Z,35.58
2022-08-24T16:09:20.535Z,35.19
2022-08-24T16:12:06.156Z,34.99
2022-08-24T16:14:47.004Z,34.90
2022-08-24T16:17:26.606Z,34.65
2022-08-24T16:20:06.274Z,34.56
2022-08-24T16:22:39.262Z,34.34
2022-08-24T16:25:13.083Z,34.41
2022-08-24T16:28:32.775Z,34.32
2022-08-24T16:31:07.845Z,34.20
2022-08-24T16:33:43.788Z,34.13
2022-08-24T16:36:18.028Z,34.05
2022-08-24T16:38:51.876Z,33.77
2022-08-24T16:41:21.406Z,33.67
2022-08-24T16:43:49.036Z,33.47
2022-08-24T16:46:21.096Z,33.01
2022-08-24T16:48:47.839Z,32.92
2022-08-24T16:51:14.477Z,32.80
2022-08-24T16:53:41.030Z,32.74
2022-08-24T16:56:14.730Z,32.60
2022-08-24T16:58:43.176Z,32.58
2022-08-24T17:01:09.775Z,32.53
2022-08-24T17:03:38.299Z,32.26
2022-08-24T17:06:05.341Z,31.94
2022-08-24T17:08:32.015Z,31.70
2022-08-24T17:10:58.561Z,31.68
2022-08-24T17:13:48.554Z,31.73
2022-08-24T17:16:12.986Z,31.63
2022-08-24T17:18:40.069Z,31.53
2022-08-24T17:21:06.716Z,31.47
2022-08-24T17:23:34.737Z,31.40
2022-08-24T17:26:06.878Z,31.39
2022-08-24T17:28:39.943Z,31.27
2022-08-24T17:31:06.677Z,31.20
2022-08-24T17:33:33.233Z,31.16
2022-08-24T17:36:00.205Z,31.05
2022-08-24T17:38:30.316Z,30.89
2022-08-24T17:40:57.061Z,30.91
2022-08-24T17:46:15.183Z,30.75
2022-08-24T17:48:45.698Z,30.66
2022-08-24T17:51:13.621Z,30.54
2022-08-24T17:53:40.806Z,30.23
2022-08-24T17:56:11.100Z,30.11
2022-08-24T17:58:57.598Z,29.92
2022-08-24T18:01:25.000Z,29.72
2022-08-24T18:03:51.840Z,29.42
2022-08-24T18:06:21.285Z,29.30
2022-08-24T18:08:48.460Z,29.25
2022-08-24T18:11:15.397Z,29.09
2022-08-24T18:13:42.436Z,28.95
2022-08-24T18:16:15.578Z,28.87
2022-08-24T18:18:42.769Z,28.74
2022-08-24T18:21:09.326Z,28.56
2022-08-24T18:23:37.246Z,28.35
2022-08-24T18:26:12.564Z,28.12
2022-08-24T18:28:39.153Z,27.98
2022-08-24T18:31:09.643Z,27.77
2022-08-24T18:33:36.213Z,27.62
2022-08-24T18:36:02.942Z,27.40
2022-08-24T18:38:29.523Z,27.29
2022-08-24T18:40:56.175Z,27.14
2022-08-24T18:43:24.137Z,27.00
2022-08-24T18:45:52.191Z,26.92
2022-08-24T18:48:19.220Z,26.70
2022-08-24T18:50:45.906Z,26.67
2022-08-24T18:53:16.196Z,26.54
2022-08-24T18:55:46.139Z,26.37
2022-08-24T18:58:13.573Z,26.26
2022-08-24T19:00:41.857Z,26.06
2022-08-24T19:03:11.220Z,26.03
2022-08-24T19:05:39.464Z,25.94
2022-08-24T19:08:06.662Z,25.83
2022-08-24T19:10:36.436Z,25.65
2022-08-24T19:13:08.234Z,25.54
2022-08-24T19:15:39.634Z,25.47
2022-08-24T19:18:11.614Z,25.21
2022-08-24T19:20:48.408Z,25.09
2022-08-24T19:23:36.108Z,25.08
2022-08-24T19:26:04.117Z,24.88
2022-08-24T19:28:31.576Z,24.90
2022-08-24T19:31:00.798Z,24.70
2022-08-24T19:33:33.784Z,24.53
2022-08-24T19:36:00.536Z,24.52
2022-08-24T19:38:27.113Z,24.30
2022-08-24T19:40:57.021Z,24.24
2022-08-24T19:43:27.559Z,24.23
2022-08-24T19:46:08.551Z,24.19
2022-08-24T19:48:39.571Z,24.16
2022-08-24T19:51:10.118Z,24.02
2022-08-24T19:53:42.927Z,24.13
2022-08-24T19:56:09.915Z,23.95
2022-08-24T19:58:51.320Z,23.89
2022-08-24T20:01:26.406Z,23.77
2022-08-24T20:03:53.755Z,23.79
2022-08-24T20:06:23.546Z,23.76
2022-08-24T20:08:51.878Z,23.64
2022-08-24T20:11:19.086Z,23.65
2022-08-24T20:13:47.410Z,23.45
2022-08-24T20:16:18.501Z,23.47
2022-08-24T20:18:45.950Z,23.49
2022-08-24T20:21:16.417Z,23.43
2022-08-24T20:23:46.246Z,23.37
2022-08-24T20:26:15.551Z,23.11
2022-08-24T20:28:48.056Z,23.12
2022-08-24T20:31:15.636Z,23.04
2022-08-24T20:33:42.387Z,22.98
2022-08-24T20:36:33.950Z,23.00
2022-08-24T20:39:01.935Z,22.94
2022-08-24T20:41:28.983Z,22.87
2022-08-24T20:43:58.164Z,22.92
2022-08-24T20:46:26.874Z,22.85
2022-08-24T20:48:55.864Z,22.75
2022-08-24T20:51:25.793Z,22.73
2022-08-24T20:53:52.446Z,22.68
2022-08-24T20:56:31.030Z,22.69
2022-08-24T20:58:58.096Z,22.54
2022-08-24T21:01:24.945Z,22.38
2022-08-24T21:03:51.771Z,22.47
2022-08-24T21:06:19.315Z,22.33
2022-08-24T21:08:48.427Z,22.44
2022-08-24T21:11:19.121Z,22.38
2022-08-24T21:13:45.681Z,22.34
2022-08-24T21:16:17.938Z,22.23
2022-08-24T21:18:46.998Z,22.26
2022-08-24T21:21:16.469Z,22.04
2022-08-24T21:23:43.096Z,22.01
2022-08-24T21:26:11.956Z,22.13
2022-08-24T21:28:41.994Z,22.00
2022-08-24T21:31:09.143Z,21.96
2022-08-24T21:33:54.061Z,21.95
2022-08-24T21:36:23.927Z,21.89
2022-08-24T21:38:53.483Z,21.94
2022-08-24T21:41:20.511Z,21.81
2022-08-24T21:43:47.056Z,21.70
2022-08-24T21:46:14.045Z,21.64
2022-08-24T21:48:40.653Z,21.73
2022-08-24T21:51:07.259Z,21.64
2022-08-24T21:53:33.841Z,21.58
2022-08-24T21:56:01.781Z,21.54
2022-08-24T21:58:28.738Z,21.51
2022-08-24T22:00:59.025Z,21.34
2022-08-24T22:03:37.467Z,21.30
2022-08-24T22:06:08.697Z,21.35
2022-08-24T22:08:36.571Z,21.13
2022-08-24T22:11:03.477Z,21.10
2022-08-24T22:13:30.018Z,21.07
2022-08-24T22:15:56.623Z,21.12
2022-08-24T22:18:23.199Z,21.13
2022-08-24T22:20:49.800Z,21.07
2022-08-24T22:23:18.572Z,21.10
2022-08-24T22:25:45.129Z,21.05
2022-08-24T22:28:11.691Z,20.93
2022-08-24T22:30:38.243Z,20.94
2022-08-24T22:33:05.225Z,20.97
2022-08-24T22:35:31.986Z,21.12
2022-08-24T22:38:09.412Z,21.06
2022-08-24T22:40:36.866Z,21.02
2022-08-24T22:43:04.193Z,20.83
2022-08-24T22:45:30.838Z,20.82
2022-08-24T22:47:57.413Z,20.73
2022-08-24T22:50:24.008Z,20.66
2022-08-24T22:52:50.613Z,20.67
2022-08-24T22:55:17.211Z,20.61
2022-08-24T22:57:43.727Z,20.67
2022-08-24T23:00:15.055Z,20.68
2022-08-24T23:02:43.953Z,20.68
2022-08-24T23:05:10.601Z,20.57
2022-08-24T23:07:37.197Z,20.51
2022-08-24T23:10:07.551Z,20.60
2022-08-24T23:12:34.137Z,20.57
2022-08-24T23:15:00.695Z,20.52
2022-08-24T23:17:27.297Z,20.51
2022-08-24T23:20:00.001Z,20.53
2022-08-24T23:22:29.375Z,20.59
2022-08-24T23:24:56.129Z,20.54
2022-08-24T23:27:22.841Z,20.50
2022-08-24T23:29:49.547Z,20.50
2022-08-24T23:32:18.294Z,20.42
2022-08-24T23:34:46.395Z,20.29
2022-08-24T23:37:13.892Z,20.31
2022-08-24T23:39:40.428Z,20.33
2022-08-24T23:42:07.250Z,20.26
2022-08-24T23:44:34.370Z,20.24
2022-08-24T23:47:01.305Z,20.22
2022-08-24T23:49:29.736Z,20.13
2022-08-24T23:51:57.213Z,20.17
2022-08-24T23:54:27.977Z,20.07
2022-08-24T23:56:55.664Z,20.04
2022-08-24T23:59:27.978Z,20.06
